Time;durP1;ratioP1;P1;durP2;ratioP2;P2;SDS_P1;SDS_P2;PMS_P1;PMS_P2;Temp;Humidity;BMP_temperature;BMP_pressure;BME280_temperature;BME280_humidity;BME280_pressure;Samples;Min_cycle;Max_cycle;Signal;HPM_P1;HPM_P2
2023/10/16 00:00:43;;;;;;;4.80;2.97;;;4.00;98.00;;;;;;5093204;28;20455;-66
2023/10/16 00:03:22;;;;;;;5.37;3.07;;;4.10;98.00;;;;;;5092929;28;20506;-66
2023/10/16 00:05:51;;;;;;;3.90;2.43;;;4.00;98.00;;;;;;5093096;28;20518;-66
2023/10/16 00:08:19;;;;;;;4.30;2.80;;;4.20;98.00;;;;;;5093029;28;20965;-65
2023/10/16 00:10:56;;;;;;;5.57;2.93;;;4.10;98.00;;;;;;5091724;28;20452;-66
2023/10/16 00:13:26;;;;;;;5.83;3.00;;;3.90;98.00;;;;;;5093053;28;20538;-66
2023/10/16 00:15:55;;;;;;;6.87;3.43;;;3.90;98.00;;;;;;5093021;28;20913;-66
2023/10/16 00:18:33;;;;;;;6.40;2.90;;;3.80;98.00;;;;;;5091388;28;20853;-66
2023/10/16 00:21:02;;;;;;;10.10;3.00;;;3.80;98.00;;;;;;5092836;28;20441;-66
2023/10/16 00:23:31;;;;;;;7.43;3.27;;;3.80;98.00;;;;;;5092621;28;20469;-65
2023/10/16 00:26:06;;;;;;;3.20;2.30;;;3.80;98.00;;;;;;5092669;28;20569;-66
2023/10/16 00:28:33;;;;;;;4.50;2.80;;;3.70;98.00;;;;;;5092656;28;20962;-66
2023/10/16 00:31:00;;;;;;;6.13;3.40;;;3.70;98.00;;;;;;5092582;28;20821;-66
2023/10/16 00:33:29;;;;;;;5.00;2.80;;;3.90;98.00;;;;;;5092512;28;20459;-65
2023/10/16 00:36:00;;;;;;;5.67;3.23;;;3.80;98.00;;;;;;5092541;28;20790;-66
2023/10/16 00:38:27;;;;;;;5.57;2.80;;;3.70;98.00;;;;;;5092346;28;20549;-66
2023/10/16 00:41:10;;;;;;;3.67;2.60;;;3.60;98.00;;;;;;5092435;28;20443;-66
2023/10/16 00:43:37;;;;;;;4.00;2.70;;;3.70;98.00;;;;;;5092508;28;20457;-65
2023/10/16 00:46:06;;;;;;;5.20;2.80;;;3.60;98.00;;;;;;5092183;28;20516;-65
2023/10/16 00:48:35;;;;;;;6.27;2.43;;;3.70;98.00;;;;;;5092123;28;20459;-65
2023/10/16 00:51:06;;;;;;;6.33;2.90;;;3.70;98.00;;;;;;5092205;28;20818;-66
2023/10/16 00:53:34;;;;;;;5.00;2.87;;;3.70;98.00;;;;;;5092175;28;20542;-66
2023/10/16 00:56:07;;;;;;;7.00;2.93;;;3.60;98.00;;;;;;5091142;28;20823;-65
2023/10/16 00:58:35;;;;;;;10.33;2.67;;;3.60;98.00;;;;;;5092176;28;20487;-65
2023/10/16 01:01:08;;;;;;;5.27;2.07;;;3.70;98.00;;;;;;5092106;28;20453;-66
2023/10/16 01:03:37;;;;;;;4.00;2.50;;;3.80;98.00;;;;;;5092050;28;20448;-65
2023/10/16 01:06:09;;;;;;;4.77;2.70;;;3.80;98.00;;;;;;5092065;28;20853;-65
2023/10/16 01:08:38;;;;;;;6.33;2.93;;;3.70;98.00;;;;;;5090706;28;20545;-65
2023/10/16 01:11:08;;;;;;;4.20;2.50;;;3.60;98.00;;;;;;5091882;28;20455;-65
2023/10/16 01:13:38;;;;;;;3.83;2.73;;;3.50;98.00;;;;;;5091592;28;20489;-66
2023/10/16 01:16:07;;;;;;;4.50;2.53;;;3.40;98.00;;;;;;5091536;28;20446;-67
2023/10/16 01:18:34;;;;;;;5.80;2.70;;;3.40;98.00;;;;;;5090490;28;20446;-65
2023/10/16 01:21:05;;;;;;;5.40;2.43;;;3.30;98.00;;;;;;5091640;28;20449;-66
2023/10/16 01:23:35;;;;;;;4.57;2.97;;;3.40;98.00;;;;;;5091568;28;20450;-65
2023/10/16 01:26:03;;;;;;;3.27;2.50;;;3.40;98.00;;;;;;5091374;28;20512;-65
2023/10/16 01:28:30;;;;;;;4.90;2.97;;;3.50;98.00;;;;;;5091455;28;20447;-65
2023/10/16 01:31:00;;;;;;;7.57;3.00;;;3.40;98.00;;;;;;5091485;28;20904;-65
2023/10/16 01:33:27;;;;;;;5.00;2.50;;;3.20;98.00;;;;;;5090950;28;20454;-65
2023/10/16 01:35:54;;;;;;;4.13;2.73;;;3.10;98.00;;;;;;5090087;28;20455;-65
2023/10/16 01:38:24;;;;;;;4.27;2.60;;;3.00;98.00;;;;;;5091378;28;20454;-65
2023/10/16 01:41:04;;;;;;;5.30;2.90;;;3.20;98.00;;;;;;5091311;28;20469;-65
2023/10/16 01:43:32;;;;;;;3.80;2.57;;;3.20;98.00;;;;;;5091287;28;20849;-66
2023/10/16 01:46:08;;;;;;;3.23;2.40;;;3.30;98.00;;;;;;5090040;28;20449;-65
2023/10/16 01:48:37;;;;;;;5.20;2.50;;;3.20;98.00;;;;;;5091038;28;20480;-65
2023/10/16 01:51:09;;;;;;;5.93;2.50;;;3.20;98.00;;;;;;5091090;28;20985;-65
2023/10/16 01:53:39;;;;;;;5.57;2.60;;;3.10;98.00;;;;;;5091118;28;20460;-65
2023/10/16 01:56:13;;;;;;;5.17;2.83;;;3.10;98.00;;;;;;5091109;28;20848;-65
2023/10/16 01:58:41;;;;;;;4.60;2.50;;;3.10;98.00;;;;;;5091056;28;20454;-65
2023/10/16 02:01:09;;;;;;;4.47;2.43;;;3.30;98.00;;;;;;5091012;28;20462;-65
2023/10/16 02:03:37;;;;;;;6.30;2.50;;;3.30;98.00;;;;;;5091007;28;20454;-65
2023/10/16 02:06:04;;;;;;;6.00;2.57;;;3.40;98.00;;;;;;5090895;28;20827;-65
2023/10/16 02:08:32;;;;;;;5.27;2.87;;;3.40;98.00;;;;;;5089685;28;20441;-65
2023/10/16 02:10:59;;;;;;;4.60;2.73;;;3.30;98.00;;;;;;5091372;28;20959;-65
2023/10/16 02:13:28;;;;;;;5.17;3.00;;;3.20;98.00;;;;;;5090871;28;20458;-65
2023/10/16 02:15:55;;;;;;;5.80;3.30;;;3.20;98.00;;;;;;5090797;28;20951;-65
2023/10/16 02:18:24;;;;;;;8.20;3.20;;;3.10;98.00;;;;;;5090882;28;20460;-65
2023/10/16 02:20:51;;;;;;;8.37;3.13;;;3.00;98.00;;;;;;5091035;28;20499;-65
2023/10/16 02:23:18;;;;;;;6.07;3.30;;;3.00;98.00;;;;;;5090776;28;20445;-65
2023/10/16 02:25:46;;;;;;;5.40;2.80;;;2.90;98.00;;;;;;5091029;28;20461;-65
2023/10/16 02:28:16;;;;;;;6.23;2.80;;;2.90;98.00;;;;;;5090528;28;20573;-65
2023/10/16 02:30:49;;;;;;;5.33;2.67;;;2.90;98.00;;;;;;5089580;28;20449;-65
2023/10/16 02:33:22;;;;;;;3.87;2.30;;;2.90;98.00;;;;;;5090736;28;20970;-65
2023/10/16 02:35:50;;;;;;;5.43;2.50;;;3.00;98.00;;;;;;5090600;28;20554;-65
2023/10/16 02:38:27;;;;;;;5.10;2.70;;;2.90;98.00;;;;;;5090769;28;20457;-65
2023/10/16 02:41:00;;;;;;;7.53;2.70;;;3.00;98.00;;;;;;5090934;28;20985;-65
2023/10/16 02:43:29;;;;;;;4.73;2.40;;;3.10;98.00;;;;;;5090797;28;20458;-65
2023/10/16 02:46:01;;;;;;;5.87;3.00;;;3.20;98.00;;;;;;5094071;28;20962;-66
2023/10/16 02:48:28;;;;;;;9.17;3.13;;;3.20;98.00;;;;;;5094499;28;20539;-65
2023/10/16 02:50:56;;;;;;;4.60;2.87;;;3.10;98.00;;;;;;5094425;28;20447;-66
2023/10/16 02:53:26;;;;;;;5.00;2.13;;;3.00;98.00;;;;;;5094370;28;20447;-65
2023/10/16 02:55:57;;;;;;;3.20;2.37;;;2.90;98.00;;;;;;5094256;28;20453;-65
2023/10/16 02:58:25;;;;;;;3.93;2.33;;;2.70;98.00;;;;;;5094309;28;20540;-65
2023/10/16 03:00:55;;;;;;;5.00;2.60;;;2.60;98.00;;;;;;5093290;28;20453;-65
2023/10/16 03:03:26;;;;;;;3.40;2.57;;;2.60;98.00;;;;;;5094218;28;20457;-65
2023/10/16 03:05:55;;;;;;;5.03;2.40;;;2.60;98.00;;;;;;5094275;28;20462;-65
2023/10/16 03:08:30;;;;;;;3.20;2.20;;;2.70;98.00;;;;;;5093963;28;20476;-65
2023/10/16 03:10:59;;;;;;;6.63;2.40;;;2.70;98.00;;;;;;5092951;28;20539;-65
2023/10/16 03:13:26;;;;;;;4.43;2.37;;;3.00;98.00;;;;;;5093739;28;20448;-65
2023/10/16 03:16:04;;;;;;;5.80;2.63;;;3.00;98.00;;;;;;5094075;28;20829;-65
2023/10/16 03:18:33;;;;;;;4.77;2.57;;;3.00;98.00;;;;;;5093906;28;20452;-65
2023/10/16 03:21:26;;;;;;;3.83;2.63;;;2.80;98.00;;;;;;5093856;28;20457;-65
2023/10/16 03:23:51;;;;;;;5.57;2.40;;;2.80;98.00;;;;;;5092563;28;20542;-65
2023/10/16 03:26:25;;;;;;;4.03;2.40;;;2.70;98.00;;;;;;5092448;28;20456;-65
2023/10/16 03:28:53;;;;;;;2.80;2.20;;;2.70;98.00;;;;;;5093848;28;20452;-65
2023/10/16 03:31:20;;;;;;;3.90;2.50;;;2.70;98.00;;;;;;5093715;28;20454;-65
2023/10/16 03:33:49;;;;;;;6.20;2.73;;;2.60;98.00;;;;;;5093537;28;20935;-65
2023/10/16 03:36:16;;;;;;;4.07;2.20;;;2.50;98.00;;;;;;5093654;28;20450;-65
2023/10/16 03:38:43;;;;;;;5.60;2.70;;;2.50;98.00;;;;;;5093607;28;20938;-65
2023/10/16 03:41:19;;;;;;;4.77;2.50;;;2.50;98.00;;;;;;5093323;28;20545;-65
2023/10/16 03:43:47;;;;;;;4.73;3.10;;;2.60;98.00;;;;;;5092123;28;21049;-65
2023/10/16 03:46:14;;;;;;;6.97;3.13;;;2.50;98.00;;;;;;5093345;28;20446;-65
2023/10/16 03:48:44;;;;;;;4.27;2.67;;;2.40;98.00;;;;;;5093286;28;20482;-65
2023/10/16 03:51:16;;;;;;;6.00;2.70;;;2.40;98.00;;;;;;5093327;28;20446;-65
2023/10/16 03:53:44;;;;;;;6.97;2.80;;;2.30;98.00;;;;;;5093367;28;20939;-65
2023/10/16 03:56:13;;;;;;;4.63;2.90;;;2.30;98.00;;;;;;5093159;28;20930;-65
2023/10/16 03:58:42;;;;;;;5.33;2.93;;;2.30;98.00;;;;;;5093363;28;20444;-65
2023/10/16 04:01:09;;;;;;;5.97;3.30;;;2.30;98.00;;;;;;5092850;28;20966;-65
2023/10/16 04:03:47;;;;;;;5.23;3.10;;;2.30;98.00;;;;;;5093366;28;20457;-65
2023/10/16 04:06:19;;;;;;;8.03;3.07;;;2.40;98.00;;;;;;5092977;28;20502;-65
2023/10/16 04:08:46;;;;;;;5.80;3.07;;;2.40;98.00;;;;;;5093073;28;20554;-65
2023/10/16 04:11:13;;;;;;;4.87;2.60;;;2.50;98.00;;;;;;5092987;28;20987;-65
2023/10/16 04:13:47;;;;;;;5.10;2.83;;;2.60;98.00;;;;;;5092928;28;20501;-65
2023/10/16 04:16:30;;;;;;;5.27;2.90;;;2.70;98.00;;;;;;5091929;28;20461;-65
2023/10/16 04:19:07;;;;;;;4.10;2.63;;;2.80;98.00;;;;;;5093183;28;20480;-65
2023/10/16 04:21:40;;;;;;;3.13;2.30;;;2.90;98.00;;;;;;5093378;28;20463;-65
2023/10/16 04:24:30;;;;;;;4.40;3.00;;;3.00;98.00;;;;;;5092870;28;20469;-65
2023/10/16 04:27:29;;;;;;;6.07;3.23;;;3.10;98.00;;;;;;5091615;28;20452;-65
2023/10/16 04:30:06;;;;;;;4.27;2.73;;;3.00;98.00;;;;;;5092589;28;20794;-65
2023/10/16 04:32:37;;;;;;;4.73;2.70;;;3.10;98.00;;;;;;5092633;28;20809;-65
2023/10/16 04:35:29;;;;;;;5.73;2.87;;;2.90;98.00;;;;;;5092660;28;20883;-65
2023/10/16 04:37:55;;;;;;;3.53;2.73;;;2.80;98.00;;;;;;5092213;28;20983;-65
2023/10/16 04:43:16;;;;;;;4.30;2.40;;;3.00;98.00;;;;;;5092391;28;20444;-65
2023/10/16 04:46:16;;;;;;;5.97;3.40;;;2.90;98.00;;;;;;5092633;28;20619;-65
2023/10/16 04:48:48;;;;;;;4.97;2.37;;;3.00;98.00;;;;;;5091315;28;20484;-65
2023/10/16 04:51:22;;;;;;;4.60;2.70;;;3.00;98.00;;;;;;5092163;28;20457;-65
2023/10/16 04:53:59;;;;;;;5.60;2.90;;;3.10;98.00;;;;;;5092051;28;20451;-65
2023/10/16 04:56:57;;;;;;;6.27;3.20;;;3.20;98.00;;;;;;5092016;28;20453;-65
2023/10/16 05:02:16;;;;;;;4.83;2.73;;;3.20;98.00;;;;;;5091989;28;20554;-65
2023/10/16 05:04:59;;;;;;;4.73;2.80;;;3.40;98.00;;;;;;5092034;28;20453;-65
2023/10/16 05:07:45;;;;;;;7.20;3.07;;;3.40;98.00;;;;;;5091044;28;20550;-66
2023/10/16 05:16:27;;;;;;;5.40;2.83;;;3.40;98.00;;;;;;5090964;28;20464;-65
2023/10/16 05:18:51;;;;;;;17.00;2.80;;;;;;;;;;5091466;28;20581;-65
2023/10/16 06:16:17;;;;;;;7.03;3.10;;;3.40;98.00;;;;;;5091340;28;20442;-61
2023/10/16 06:18:44;;;;;;;7.97;3.30;;;3.30;98.00;;;;;;5092932;28;20461;-61
2023/10/16 06:21:14;;;;;;;6.57;3.40;;;3.30;98.00;;;;;;5095476;28;20449;-61
2023/10/16 06:23:43;;;;;;;6.87;3.20;;;3.10;98.00;;;;;;5095372;28;20449;-61
2023/10/16 06:26:10;;;;;;;3.80;2.53;;;3.10;98.00;;;;;;5094157;28;20474;-61
2023/10/16 06:28:47;;;;;;;7.83;3.27;;;3.40;98.00;;;;;;5095049;28;20584;-61
2023/10/16 06:31:22;;;;;;;6.03;3.40;;;3.40;98.00;;;;;;5095174;28;20544;-61
2023/10/16 06:33:53;;;;;;;4.87;3.07;;;3.40;98.00;;;;;;5094183;28;20982;-62
2023/10/16 06:36:24;;;;;;;6.40;3.33;;;3.40;98.00;;;;;;5095007;28;20540;-61
2023/10/16 06:38:52;;;;;;;5.90;3.13;;;3.40;98.00;;;;;;5095097;28;20463;-61
2023/10/16 06:41:20;;;;;;;8.10;4.07;;;3.50;98.00;;;;;;5095199;28;20498;-61
2023/10/16 06:43:48;;;;;;;9.80;4.10;;;3.50;98.00;;;;;;5094874;28;20514;-61
2023/10/16 06:46:23;;;;;;;7.13;3.97;;;3.60;98.00;;;;;;5094968;28;20479;-62
2023/10/16 06:48:51;;;;;;;7.07;3.50;;;3.60;98.00;;;;;;5094858;28;20516;-61
2023/10/16 06:51:25;;;;;;;6.80;3.57;;;3.70;98.00;;;;;;5094689;28;20449;-61
2023/10/16 06:53:53;;;;;;;6.03;3.70;;;3.60;98.00;;;;;;5094782;28;20448;-62
2023/10/16 06:56:31;;;;;;;8.67;3.73;;;3.60;98.00;;;;;;5094880;28;20482;-61
2023/10/16 06:58:58;;;;;;;4.53;2.87;;;3.60;98.00;;;;;;5094690;28;20537;-61
2023/10/16 07:01:27;;;;;;;8.00;3.70;;;3.60;98.00;;;;;;5094418;28;20994;-61
2023/10/16 07:03:56;;;;;;;7.70;4.00;;;3.60;98.00;;;;;;5094733;28;20876;-61
2023/10/16 07:06:32;;;;;;;9.13;4.03;;;3.50;98.00;;;;;;5094532;28;20506;-61
2023/10/16 07:09:00;;;;;;;8.23;4.17;;;3.50;98.00;;;;;;5094417;28;20510;-61
2023/10/16 07:11:28;;;;;;;8.53;3.40;;;3.60;98.00;;;;;;5094472;28;20522;-61
2023/10/16 07:13:56;;;;;;;7.97;3.40;;;3.80;98.00;;;;;;5093377;28;20819;-61
2023/10/16 07:16:23;;;;;;;9.93;4.40;;;3.90;98.00;;;;;;5093213;28;20472;-61
2023/10/16 07:18:54;;;;;;;7.67;4.40;;;3.90;98.00;;;;;;5094504;28;20454;-61
2023/10/16 07:21:22;;;;;;;7.80;4.40;;;3.80;98.00;;;;;;5094327;28;20449;-61
2023/10/16 07:23:53;;;;;;;8.97;3.60;;;4.00;98.00;;;;;;5094356;28;20448;-61
2023/10/16 07:26:24;;;;;;;13.63;5.13;;;4.10;98.00;;;;;;5094300;28;20792;-61
2023/10/16 07:28:51;;;;;;;8.40;4.27;;;4.20;98.00;;;;;;5094198;28;20486;-61
2023/10/16 07:31:19;;;;;;;9.37;4.63;;;4.20;98.00;;;;;;5093527;28;20943;-61
2023/10/16 07:33:50;;;;;;;7.10;4.13;;;4.00;98.00;;;;;;5094167;28;20786;-61
2023/10/16 07:36:18;;;;;;;10.40;4.57;;;3.90;98.00;;;;;;5093990;28;20457;-61
2023/10/16 07:38:45;;;;;;;8.53;4.30;;;4.00;98.00;;;;;;5094136;28;20485;-61
2023/10/16 07:41:18;;;;;;;11.13;4.33;;;3.90;98.00;;;;;;5094056;28;20457;-61
2023/10/16 07:43:46;;;;;;;9.10;4.10;;;3.80;98.00;;;;;;5094181;28;20455;-61
2023/10/16 07:46:29;;;;;;;9.37;4.20;;;3.90;98.00;;;;;;5093789;28;20496;-61
2023/10/16 07:48:56;;;;;;;7.13;3.90;;;3.90;98.00;;;;;;5093585;28;20486;-61
2023/10/16 07:51:26;;;;;;;12.00;4.20;;;3.90;98.00;;;;;;5093644;28;20454;-61
2023/10/16 07:53:54;;;;;;;6.00;4.00;;;3.90;98.00;;;;;;5093705;28;20489;-61
2023/10/16 07:56:28;;;;;;;8.03;4.20;;;4.20;98.00;;;;;;5093499;28;20453;-61
2023/10/16 07:58:57;;;;;;;9.63;3.63;;;4.40;98.00;;;;;;5093770;28;20546;-61
2023/10/16 08:01:41;;;;;;;12.60;4.17;;;4.30;98.00;;;;;;5093420;28;20515;-61
2023/10/16 08:04:19;;;;;;;5.80;3.50;;;4.60;98.00;;;;;;5093478;28;20928;-61
2023/10/16 08:06:48;;;;;;;8.87;4.43;;;4.80;98.00;;;;;;5093435;28;20454;-61
2023/10/16 08:11:58;;;;;;;12.30;4.60;;;5.30;98.00;;;;;;5090468;28;20454;-61
2023/10/16 08:14:26;;;;;;;8.53;4.20;;;5.50;98.00;;;;;;5093209;28;20944;-61
2023/10/16 08:16:58;;;;;;;8.07;4.43;;;5.70;98.00;;;;;;5093207;28;20456;-61
2023/10/16 08:19:26;;;;;;;7.67;4.47;;;5.90;98.00;;;;;;5093090;28;20450;-61
2023/10/16 08:21:56;;;;;;;9.00;4.70;;;6.00;98.00;;;;;;5093160;28;20453;-61
2023/10/16 08:24:24;;;;;;;8.10;4.10;;;6.20;98.00;;;;;;5093046;28;20488;-62
2023/10/16 08:26:52;;;;;;;7.80;4.20;;;6.30;98.00;;;;;;5091688;28;20457;-62
2023/10/16 08:29:33;;;;;;;7.97;4.30;;;6.50;98.00;;;;;;5092791;28;20535;-62
2023/10/16 08:34:42;;;;;;;7.23;3.60;;;6.80;98.00;;;;;;5092358;28;20484;-61
2023/10/16 08:37:11;;;;;;;8.47;4.30;;;6.90;98.00;;;;;;5091660;28;20460;-61
2023/10/16 08:39:47;;;;;;;9.33;4.83;;;7.10;98.00;;;;;;5092832;28;20474;-61
2023/10/16 08:42:20;;;;;;;8.33;4.23;;;7.20;98.00;;;;;;5091729;28;20448;-61
2023/10/16 08:44:51;;;;;;;9.30;4.40;;;7.40;98.00;;;;;;5092861;28;20525;-61
2023/10/16 08:47:24;;;;;;;9.43;4.77;;;7.60;98.00;;;;;;5092618;28;21009;-62
2023/10/16 08:49:54;;;;;;;11.20;4.50;;;7.80;98.00;;;;;;5091430;28;21020;-61
2023/10/16 08:52:27;;;;;;;8.13;4.40;;;8.00;98.00;;;;;;5092611;28;20458;-61
2023/10/16 08:55:14;;;;;;;8.57;4.60;;;8.20;98.00;;;;;;5092540;28;20451;-61
2023/10/16 08:57:42;;;;;;;12.23;4.70;;;8.30;98.00;;;;;;5091364;28;20454;-61
2023/10/16 09:00:19;;;;;;;9.73;4.37;;;8.50;98.00;;;;;;5092698;28;20456;-62
2023/10/16 09:02:49;;;;;;;9.10;4.70;;;8.50;98.00;;;;;;5092201;28;20469;-61
2023/10/16 09:05:16;;;;;;;13.30;4.30;;;8.60;98.00;;;;;;5091041;28;20519;-61
2023/10/16 09:07:47;;;;;;;7.83;3.87;;;8.70;98.00;;;;;;5092189;28;20587;-61
2023/10/16 09:10:15;;;;;;;7.13;3.80;;;8.90;98.00;;;;;;5091094;28;20483;-62
2023/10/16 09:12:52;;;;;;;8.00;4.13;;;9.00;98.00;;;;;;5092342;28;20454;-61
2023/10/16 09:15:24;;;;;;;9.43;4.37;;;9.20;98.00;;;;;;5092319;28;20546;-62
2023/10/16 09:17:52;;;;;;;9.73;4.70;;;9.40;98.00;;;;;;5092344;28;20466;-61
2023/10/16 09:20:32;;;;;;;8.30;3.90;;;9.60;98.00;;;;;;5092333;28;20964;-61
2023/10/16 09:23:03;;;;;;;7.60;3.77;;;9.70;98.00;;;;;;5091116;28;20505;-61
2023/10/16 09:25:31;;;;;;;8.90;3.50;;;9.80;98.00;;;;;;5092134;28;20488;-61
2023/10/16 09:27:58;;;;;;;8.77;3.97;;;10.00;98.00;;;;;;5090635;28;20444;-62
2023/10/16 09:30:31;;;;;;;4.77;3.07;;;10.20;98.00;;;;;;5091833;28;20457;-62
2023/10/16 09:32:59;;;;;;;5.57;2.87;;;10.30;98.00;;;;;;5091758;28;20463;-62
2023/10/16 09:35:32;;;;;;;5.47;3.00;;;10.40;98.00;;;;;;5091758;28;20848;-62
2023/10/16 09:38:17;;;;;;;5.00;3.17;;;10.60;98.00;;;;;;5091771;28;20451;-63
2023/10/16 09:40:45;;;;;;;6.57;2.93;;;10.90;98.00;;;;;;5091714;28;20478;-61
2023/10/16 09:43:24;;;;;;;4.77;2.70;;;11.00;98.00;;;;;;5091620;28;20490;-62
2023/10/16 09:46:21;;;;;;;5.23;2.70;;;11.20;98.00;;;;;;5090650;28;20455;-62
2023/10/16 09:48:42;;;;;;;7.20;3.43;;;11.20;98.00;;;;;;5091334;28;20487;-62
2023/10/16 09:51:12;;;;;;;5.20;2.60;;;11.50;98.00;;;;;;5090436;28;20473;-62
2023/10/16 09:53:41;;;;;;;5.30;3.20;;;11.60;98.00;;;;;;5091178;28;20459;-62
2023/10/16 09:56:12;;;;;;;6.40;3.40;;;11.80;98.00;;;;;;5091595;28;20453;-62
2023/10/16 09:58:45;;;;;;;6.87;3.20;;;11.80;98.00;;;;;;5091294;28;20462;-62
2023/10/16 10:01:23;;;;;;;5.40;2.90;;;11.80;98.00;;;;;;5091151;28;20512;-62
2023/10/16 10:04:07;;;;;;;6.93;2.90;;;11.90;98.00;;;;;;5150206;27;20545;-62
2023/10/16 10:06:39;;;;;;;7.03;3.30;;;12.20;98.00;;;;;;5129514;28;20457;-61
2023/10/16 10:12:13;;;;;;;5.30;3.10;;;12.20;98.00;;;;;;5129130;28;20478;-62
2023/10/16 10:14:48;;;;;;;6.00;3.07;;;12.40;98.00;;;;;;5129329;27;20443;-62
2023/10/16 10:17:19;;;;;;;4.17;2.83;;;12.40;98.00;;;;;;5129378;28;20549;-62
2023/10/16 10:19:54;;;;;;;7.20;3.40;;;12.50;98.00;;;;;;5129336;27;20459;-62
2023/10/16 10:22:27;;;;;;;4.90;2.83;;;12.70;98.00;;;;;;5129307;28;20521;-61
2023/10/16 10:25:11;;;;;;;4.80;2.93;;;12.80;98.00;;;;;;5129192;27;20458;-61
2023/10/16 10:27:42;;;;;;;4.40;2.60;;;12.90;98.00;;;;;;5129306;27;20442;-62
2023/10/16 10:30:17;;;;;;;4.80;2.77;;;12.90;98.00;;;;;;5129003;28;20486;-62
2023/10/16 10:32:45;;;;;;;3.73;2.40;;;12.90;98.00;;;;;;5129135;28;20456;-62
2023/10/16 10:35:26;;;;;;;5.60;2.63;;;13.10;98.00;;;;;;5129149;27;20540;-61
2023/10/16 10:38:17;;;;;;;4.70;2.80;;;13.40;98.00;;;;;;5129094;28;20503;-61
2023/10/16 10:41:15;;;;;;;6.77;3.23;;;13.70;98.00;;;;;;5129141;27;20864;-61
2023/10/16 10:43:47;;;;;;;2.80;2.03;;;14.00;98.00;;;;;;5128782;27;20523;-61
2023/10/16 10:46:15;;;;;;;3.10;2.27;;;14.20;98.00;;;;;;5128932;28;20447;-62
2023/10/16 10:48:56;;;;;;;4.17;2.60;;;14.30;98.00;;;;;;5128688;28;20497;-62
2023/10/16 10:51:29;;;;;;;6.53;2.57;;;14.60;98.00;;;;;;5128862;27;20451;-62
2023/10/16 10:54:03;;;;;;;5.90;3.50;;;14.80;98.00;;;;;;5128764;28;20456;-62
2023/10/16 10:56:40;;;;;;;8.97;2.80;;;15.10;98.00;;;;;;5128751;27;20443;-62
2023/10/16 10:59:09;;;;;;;4.90;2.80;;;15.40;98.00;;;;;;5128706;28;20471;-61
2023/10/16 11:01:50;;;;;;;4.30;2.90;;;15.60;98.00;;;;;;5127889;28;20452;-62
2023/10/16 11:04:17;;;;;;;4.80;2.57;;;15.90;97.70;;;;;;5128699;28;20457;-62
2023/10/16 11:06:52;;;;;;;4.00;2.60;;;16.20;95.90;;;;;;5128503;28;20588;-63
2023/10/16 11:09:20;;;;;;;4.47;2.20;;;16.20;95.70;;;;;;5128440;28;20460;-62
2023/10/16 11:11:50;;;;;;;4.23;2.17;;;16.30;97.00;;;;;;5128485;28;20496;-62
2023/10/16 11:14:19;;;;;;;4.70;3.13;;;16.40;97.70;;;;;;5121030;28;20449;-62
2023/10/16 11:16:48;;;;;;;5.37;3.13;;;16.50;94.60;;;;;;5114660;28;20823;-63
2023/10/16 11:19:28;;;;;;;4.30;2.50;;;16.30;95.70;;;;;;5114498;28;20966;-62
2023/10/16 11:21:57;;;;;;;4.90;2.83;;;16.30;95.80;;;;;;5114644;28;20453;-62
2023/10/16 11:24:25;;;;;;;3.27;2.50;;;16.50;94.70;;;;;;5114554;28;20482;-62
2023/10/16 11:26:54;;;;;;;9.30;2.60;;;16.80;95.60;;;;;;5114414;28;20451;-62
2023/10/16 11:29:22;;;;;;;2.50;2.20;;;17.00;92.80;;;;;;5114266;28;20812;-62
2023/10/16 11:31:52;;;;;;;4.10;2.67;;;17.30;95.00;;;;;;5113958;28;20443;-62
2023/10/16 11:34:24;;;;;;;4.60;2.57;;;17.40;92.80;;;;;;5114214;28;20516;-63
2023/10/16 11:36:51;;;;;;;7.87;2.53;;;17.60;91.00;;;;;;5114367;28;20447;-62
2023/10/16 11:39:20;;;;;;;4.30;2.70;;;17.80;92.00;;;;;;5113989;28;20959;-62
2023/10/16 11:41:48;;;;;;;4.23;2.93;;;18.10;91.80;;;;;;5114476;28;20949;-63
2023/10/16 11:44:16;;;;;;;4.87;3.47;;;18.30;90.60;;;;;;5112523;28;20554;-62
2023/10/16 11:46:46;;;;;;;4.63;2.80;;;18.30;91.20;;;;;;5113976;28;20487;-62
2023/10/16 11:49:35;;;;;;;4.33;2.40;;;18.50;90.00;;;;;;5114000;28;20447;-63
2023/10/16 11:52:19;;;;;;;4.07;2.23;;;18.60;88.90;;;;;;5113892;28;20451;-62
2023/10/16 11:54:48;;;;;;;3.77;2.60;;;18.60;87.10;;;;;;5113030;28;20447;-63
2023/10/16 11:57:16;;;;;;;3.80;2.70;;;18.70;86.50;;;;;;5113896;28;20447;-63
2023/10/16 11:59:43;;;;;;;3.40;2.40;;;18.60;86.70;;;;;;5113747;28;20455;-62
2023/10/16 12:02:12;;;;;;;4.20;2.50;;;18.70;88.50;;;;;;5113534;28;20516;-63
2023/10/16 12:04:41;;;;;;;3.80;2.20;;;18.80;87.70;;;;;;5113606;28;20443;-63
2023/10/16 12:07:09;;;;;;;10.20;3.67;;;19.00;87.80;;;;;;5113631;28;20451;-62
2023/10/16 12:09:42;;;;;;;4.37;2.80;;;19.20;86.90;;;;;;5113519;28;20805;-62
2023/10/16 12:12:19;;;;;;;4.60;2.60;;;19.10;86.00;;;;;;5113828;28;20462;-62
2023/10/16 12:14:48;;;;;;;3.67;2.57;;;19.20;86.60;;;;;;5113586;28;20447;-62
2023/10/16 12:17:15;;;;;;;2.90;2.43;;;19.30;84.70;;;;;;5095712;28;20584;-63
2023/10/16 12:19:42;;;;;;;4.43;2.50;;;19.20;86.90;;;;;;5092954;28;20448;-63
2023/10/16 12:22:09;;;;;;;5.40;2.50;;;19.50;86.00;;;;;;5093001;28;20467;-64
2023/10/16 12:24:38;;;;;;;3.73;2.57;;;19.60;86.10;;;;;;5092866;28;20901;-62
2023/10/16 12:27:06;;;;;;;3.70;2.47;;;19.60;85.20;;;;;;5090773;28;20452;-63
2023/10/16 12:29:35;;;;;;;4.80;2.17;;;19.60;84.50;;;;;;5092979;28;20796;-63
2023/10/16 12:32:03;;;;;;;3.87;2.00;;;19.50;84.80;;;;;;5092873;28;20479;-63
2023/10/16 12:34:32;;;;;;;3.20;2.30;;;19.40;82.90;;;;;;5092679;28;20788;-62
2023/10/16 12:37:00;;;;;;;4.90;2.13;;;19.40;82.70;;;;;;5092936;28;20988;-63
2023/10/16 12:39:28;;;;;;;3.30;2.40;;;19.60;82.70;;;;;;5092998;28;20514;-63
2023/10/16 12:41:56;;;;;;;4.03;2.40;;;19.70;83.30;;;;;;5093121;28;20471;-63
2023/10/16 12:44:23;;;;;;;4.60;2.47;;;19.80;83.10;;;;;;5092593;28;20530;-62
2023/10/16 12:46:53;;;;;;;4.63;2.80;;;20.00;83.20;;;;;;5092598;28;20488;-63
2023/10/16 12:49:20;;;;;;;5.00;2.20;;;20.10;82.50;;;;;;5092407;28;20452;-63
2023/10/16 12:51:48;;;;;;;2.90;2.37;;;19.80;82.10;;;;;;5092599;28;20443;-63
2023/10/16 12:54:16;;;;;;;2.60;1.93;;;19.90;82.20;;;;;;5092194;28;20456;-63
2023/10/16 12:56:44;;;;;;;3.03;2.40;;;19.80;81.40;;;;;;5092391;28;20451;-63
2023/10/16 12:59:11;;;;;;;2.70;2.07;;;19.60;83.00;;;;;;5092253;28;20782;-62
2023/10/16 13:01:40;;;;;;;2.63;1.87;;;20.00;81.20;;;;;;5092233;28;20542;-63
2023/10/16 13:04:13;;;;;;;3.20;2.13;;;20.10;80.90;;;;;;5092376;28;20507;-63
2023/10/16 13:06:40;;;;;;;3.53;2.43;;;20.10;80.30;;;;;;5092456;28;20448;-63
2023/10/16 13:09:14;;;;;;;3.20;2.13;;;19.90;80.50;;;;;;5091988;28;20517;-63
2023/10/16 13:11:41;;;;;;;2.87;2.13;;;19.90;79.80;;;;;;5092075;28;20454;-63
2023/10/16 13:14:08;;;;;;;2.60;2.13;;;19.90;80.60;;;;;;5091938;28;20945;-62
2023/10/16 13:16:35;;;;;;;3.83;2.10;;;20.00;81.50;;;;;;5092019;28;20451;-62
2023/10/16 13:19:04;;;;;;;2.77;1.97;;;19.90;79.80;;;;;;5091987;28;20452;-63
2023/10/16 13:21:33;;;;;;;2.40;2.20;;;19.80;80.90;;;;;;5091784;28;20543;-63
2023/10/16 13:24:04;;;;;;;2.40;2.00;;;19.80;81.30;;;;;;5091813;28;20484;-63
2023/10/16 13:26:35;;;;;;;4.73;1.90;;;19.70;80.80;;;;;;5092025;28;20830;-63
2023/10/16 13:29:07;;;;;;;3.07;2.10;;;19.20;80.80;;;;;;5091743;28;20818;-63
2023/10/16 13:31:35;;;;;;;4.10;2.60;;;19.00;81.40;;;;;;5091798;28;20820;-62
2023/10/16 13:34:03;;;;;;;4.23;2.50;;;18.90;80.90;;;;;;5091689;28;20448;-64
2023/10/16 13:36:35;;;;;;;2.33;2.00;;;18.80;80.80;;;;;;5091577;28;20805;-63
2023/10/16 13:39:07;;;;;;;4.13;2.37;;;18.60;81.70;;;;;;5091475;28;20456;-63
2023/10/16 13:41:35;;;;;;;4.07;2.10;;;18.70;82.40;;;;;;5091523;28;20546;-63
2023/10/16 13:44:02;;;;;;;3.77;2.33;;;18.70;81.80;;;;;;5091581;28;20974;-63
2023/10/16 13:46:29;;;;;;;3.23;2.30;;;18.70;82.40;;;;;;5091553;28;20859;-64
2023/10/16 13:48:57;;;;;;;5.90;2.70;;;18.50;82.60;;;;;;5091564;28;20532;-63
2023/10/16 13:51:24;;;;;;;2.60;2.13;;;18.60;82.10;;;;;;5090397;28;20448;-63
2023/10/16 13:56:35;;;;;;;2.67;2.00;;;18.70;81.60;;;;;;5090273;28;20531;-63
2023/10/16 13:59:03;;;;;;;4.60;1.80;;;18.90;82.60;;;;;;5090179;28;20823;-63
2023/10/16 14:01:31;;;;;;;2.20;1.90;;;19.20;82.20;;;;;;5091361;28;20530;-63
2023/10/16 14:03:58;;;;;;;2.70;1.93;;;19.50;81.90;;;;;;5089771;28;20563;-63
2023/10/16 14:06:28;;;;;;;4.10;2.37;;;19.80;79.80;;;;;;5091245;28;20542;-64
2023/10/16 14:09:00;;;;;;;2.97;2.20;;;20.10;79.30;;;;;;5091515;28;20482;-63
2023/10/16 14:11:33;;;;;;;2.47;2.10;;;20.10;78.90;;;;;;5091405;28;21017;-63
2023/10/16 14:14:00;;;;;;;2.80;2.07;;;20.10;78.30;;;;;;5090595;28;20448;-63
2023/10/16 14:16:32;;;;;;;4.00;2.00;;;20.20;78.30;;;;;;5091237;28;20460;-63
2023/10/16 14:19:06;;;;;;;4.10;2.40;;;20.30;78.50;;;;;;5091402;28;20452;-63
2023/10/16 14:21:33;;;;;;;3.47;2.23;;;20.40;79.00;;;;;;5090516;28;20448;-62
2023/10/16 14:24:01;;;;;;;5.27;2.20;;;20.50;78.90;;;;;;5091368;28;20483;-62
2023/10/16 14:26:29;;;;;;;3.40;2.20;;;20.70;77.70;;;;;;5091073;28;20547;-63
2023/10/16 14:28:59;;;;;;;3.67;2.47;;;20.80;77.80;;;;;;5091140;28;20942;-64
2023/10/16 14:31:28;;;;;;;3.13;2.20;;;20.90;77.70;;;;;;5091083;28;20448;-62